sensor_id;sensor_type;location;lat;lon;timestamp;pressure;altitude;pressure_sealevel;temperature;humidity
32875;BME280;40468;42.128;24.750;2023-11-22T00:00:54;99093.94;;;9.36;62.87
32875;BME280;40468;42.128;24.750;2023-11-22T00:02:26;99094.00;;;9.34;63.09
32875;BME280;40468;42.128;24.750;2023-11-22T00:03:59;99090.72;;;9.31;63.20
32875;BME280;40468;42.128;24.750;2023-11-22T00:05:30;99097.69;;;9.30;63.01
32875;BME280;40468;42.128;24.750;2023-11-22T00:07:01;99099.34;;;9.31;63.16
32875;BME280;40468;42.128;24.750;2023-11-22T00:08:32;99097.84;;;9.27;63.35
32875;BME280;40468;42.128;24.750;2023-11-22T00:10:05;99091.03;;;9.25;63.61
32875;BME280;40468;42.128;24.750;2023-11-22T00:11:37;99094.72;;;9.21;63.92
32875;BME280;40468;42.128;24.750;2023-11-22T00:13:08;99084.41;;;9.19;63.81
32875;BME280;40468;42.128;24.750;2023-11-22T00:14:40;99083.72;;;9.16;64.12
32875;BME280;40468;42.128;24.750;2023-11-22T00:16:10;99086.31;;;9.16;64.16
32875;BME280;40468;42.128;24.750;2023-11-22T00:17:42;99084.56;;;9.16;63.66
32875;BME280;40468;42.128;24.750;2023-11-22T00:19:12;99082.06;;;9.15;63.57
32875;BME280;40468;42.128;24.750;2023-11-22T00:20:47;99080.28;;;9.15;63.70
32875;BME280;40468;42.128;24.750;2023-11-22T00:22:17;99080.28;;;9.15;63.82
32875;BME280;40468;42.128;24.750;2023-11-22T00:23:49;99077.69;;;9.15;63.75
32875;BME280;40468;42.128;24.750;2023-11-22T00:25:21;99061.19;;;9.16;63.48
32875;BME280;40468;42.128;24.750;2023-11-22T00:26:53;99062.88;;;9.17;63.45
32875;BME280;40468;42.128;24.750;2023-11-22T00:28:23;99067.19;;;9.17;63.28
32875;BME280;40468;42.128;24.750;2023-11-22T00:29:55;99068.81;;;9.19;63.56
32875;BME280;40468;42.128;24.750;2023-11-22T00:31:25;99078.31;;;9.20;63.16
32875;BME280;40468;42.128;24.750;2023-11-22T00:32:57;99078.31;;;9.20;63.43
32875;BME280;40468;42.128;24.750;2023-11-22T00:34:27;99083.50;;;9.20;63.17
32875;BME280;40468;42.128;24.750;2023-11-22T00:35:59;99078.31;;;9.20;63.21
32875;BME280;40468;42.128;24.750;2023-11-22T00:37:34;99073.94;;;9.21;63.05
32875;BME280;40468;42.128;24.750;2023-11-22T00:39:05;99084.25;;;9.22;62.84
32875;BME280;40468;42.128;24.750;2023-11-22T00:40:38;99069.47;;;9.23;62.94
32875;BME280;40468;42.128;24.750;2023-11-22T00:42:08;99072.94;;;9.23;62.72
32875;BME280;40468;42.128;24.750;2023-11-22T00:43:40;99072.94;;;9.23;62.86
32875;BME280;40468;42.128;24.750;2023-11-22T00:45:10;99071.97;;;9.26;62.91
32875;BME280;40468;42.128;24.750;2023-11-22T00:46:42;99067.50;;;9.28;62.63
32875;BME280;40468;42.128;24.750;2023-11-22T00:48:12;99064.91;;;9.28;62.74
32875;BME280;40468;42.128;24.750;2023-11-22T00:49:44;99063.91;;;9.30;62.69
32875;BME280;40468;42.128;24.750;2023-11-22T00:51:14;99067.34;;;9.31;62.50
32875;BME280;40468;42.128;24.750;2023-11-22T00:52:46;99064.69;;;9.32;62.38
32875;BME280;40468;42.128;24.750;2023-11-22T00:54:16;99066.50;;;9.30;62.38
32875;BME280;40468;42.128;24.750;2023-11-22T00:55:50;99063.91;;;9.30;62.55
32875;BME280;40468;42.128;24.750;2023-11-22T00:57:21;99073.47;;;9.30;62.61
32875;BME280;40468;42.128;24.750;2023-11-22T00:58:52;99072.63;;;9.29;62.57
32875;BME280;40468;42.128;24.750;2023-11-22T01:00:23;99074.41;;;9.29;62.68
32875;BME280;40468;42.128;24.750;2023-11-22T01:01:55;99070.03;;;9.29;62.59
32875;BME280;40468;42.128;24.750;2023-11-22T01:03:25;99070.03;;;9.29;62.48
32875;BME280;40468;42.128;24.750;2023-11-22T01:04:57;99069.09;;;9.30;62.61
32875;BME280;40468;42.128;24.750;2023-11-22T01:06:27;99062.25;;;9.29;62.63
32875;BME280;40468;42.128;24.750;2023-11-22T01:07:59;99060.38;;;9.31;62.62
32875;BME280;40468;42.128;24.750;2023-11-22T01:09:31;99055.19;;;9.31;62.58
32875;BME280;40468;42.128;24.750;2023-11-22T01:11:03;99056.94;;;9.31;62.63
32875;BME280;40468;42.128;24.750;2023-11-22T01:12:35;99058.66;;;9.32;62.33
32875;BME280;40468;42.128;24.750;2023-11-22T01:14:06;99052.53;;;9.33;62.41
32875;BME280;40468;42.128;24.750;2023-11-22T01:15:37;99049.09;;;9.32;62.21
32875;BME280;40468;42.128;24.750;2023-11-22T01:17:08;99050.75;;;9.33;62.09
32875;BME280;40468;42.128;24.750;2023-11-22T01:18:40;99055.03;;;9.34;62.07
32875;BME280;40468;42.128;24.750;2023-11-22T01:20:11;99049.75;;;9.36;62.09
32875;BME280;40468;42.128;24.750;2023-11-22T01:21:43;99051.44;;;9.37;61.96
32875;BME280;40468;42.128;24.750;2023-11-22T01:23:14;99054.91;;;9.38;62.28
32875;BME280;40468;42.128;24.750;2023-11-22T01:24:46;99060.09;;;9.38;62.03
32875;BME280;40468;42.128;24.750;2023-11-22T01:26:17;99057.50;;;9.38;62.20
32875;BME280;40468;42.128;24.750;2023-11-22T01:27:49;99055.78;;;9.37;62.29
32875;BME280;40468;42.128;24.750;2023-11-22T01:29:20;99052.44;;;9.34;62.15
32875;BME280;40468;42.128;24.750;2023-11-22T01:30:51;99050.69;;;9.35;62.41
32875;BME280;40468;42.128;24.750;2023-11-22T01:32:22;99048.94;;;9.36;62.21
32875;BME280;40468;42.128;24.750;2023-11-22T01:33:54;99057.56;;;9.36;62.13
32875;BME280;40468;42.128;24.750;2023-11-22T01:35:25;99056.72;;;9.36;62.26
32875;BME280;40468;42.128;24.750;2023-11-22T01:36:56;99062.75;;;9.36;62.12
32875;BME280;40468;42.128;24.750;2023-11-22T01:38:27;99060.16;;;9.36;62.26
32875;BME280;40468;42.128;24.750;2023-11-22T01:39:58;98997.56;;;9.07;62.19
32875;BME280;40468;42.128;24.750;2023-11-22T01:41:32;99045.41;;;9.37;62.19
32875;BME280;40468;42.128;24.750;2023-11-22T01:43:04;99045.50;;;9.35;62.14
32875;BME280;40468;42.128;24.750;2023-11-22T01:44:35;99039.44;;;9.34;62.44
32875;BME280;40468;42.128;24.750;2023-11-22T01:46:07;99036.94;;;9.33;62.27
32875;BME280;40468;42.128;24.750;2023-11-22T01:47:37;99043.78;;;9.34;62.19
32875;BME280;40468;42.128;24.750;2023-11-22T01:49:10;99047.22;;;9.34;62.23
32875;BME280;40468;42.128;24.750;2023-11-22T01:50:41;99041.13;;;9.36;61.97
32875;BME280;40468;42.128;24.750;2023-11-22T01:52:13;99047.16;;;9.36;62.29
32875;BME280;40468;42.128;24.750;2023-11-22T01:53:44;99048.00;;;9.37;62.26
32875;BME280;40468;42.128;24.750;2023-11-22T01:55:16;99038.53;;;9.36;62.36
32875;BME280;40468;42.128;24.750;2023-11-22T01:56:48;99035.16;;;9.33;62.51
32875;BME280;40468;42.128;24.750;2023-11-22T01:58:21;99038.69;;;9.32;62.46
32875;BME280;40468;42.128;24.750;2023-11-22T01:59:53;99036.16;;;9.31;62.15
32875;BME280;40468;42.128;24.750;2023-11-22T02:01:25;99031.81;;;9.31;62.20
32875;BME280;40468;42.128;24.750;2023-11-22T02:02:56;99032.56;;;9.33;62.11
32875;BME280;40468;42.128;24.750;2023-11-22T02:04:27;99030.75;;;9.36;62.35
32875;BME280;40468;42.128;24.750;2023-11-22T02:05:59;99026.44;;;9.34;62.28
32875;BME280;40468;42.128;24.750;2023-11-22T02:07:30;99025.53;;;9.36;62.15
32875;BME280;40468;42.128;24.750;2023-11-22T02:09:02;99033.25;;;9.37;62.04
32875;BME280;40468;42.128;24.750;2023-11-22T02:10:33;99030.63;;;9.37;62.33
32875;BME280;40468;42.128;24.750;2023-11-22T02:12:08;99029.81;;;9.37;62.13
32875;BME280;40468;42.128;24.750;2023-11-22T02:13:40;99026.38;;;9.36;62.15
32875;BME280;40468;42.128;24.750;2023-11-22T02:15:10;99031.63;;;9.34;62.13
32875;BME280;40468;42.128;24.750;2023-11-22T02:16:42;99031.72;;;9.33;62.08
32875;BME280;40468;42.128;24.750;2023-11-22T02:18:13;99034.41;;;9.31;62.29
32875;BME280;40468;42.128;24.750;2023-11-22T02:19:44;99032.72;;;9.30;62.50
32875;BME280;40468;42.128;24.750;2023-11-22T02:21:16;99032.88;;;9.27;62.63
32875;BME280;40468;42.128;24.750;2023-11-22T02:22:47;99033.81;;;9.26;62.60
32875;BME280;40468;42.128;24.750;2023-11-22T02:24:19;99033.88;;;9.25;62.39
32875;BME280;40468;42.128;24.750;2023-11-22T02:25:51;99025.19;;;9.26;62.42
32875;BME280;40468;42.128;24.750;2023-11-22T02:27:22;99022.50;;;9.27;62.65
32875;BME280;40468;42.128;24.750;2023-11-22T02:28:53;99020.84;;;9.26;62.52
32875;BME280;40468;42.128;24.750;2023-11-22T02:30:24;99024.16;;;9.28;62.58
32875;BME280;40468;42.128;24.750;2023-11-22T02:31:56;99018.97;;;9.28;62.33
32875;BME280;40468;42.128;24.750;2023-11-22T02:33:26;99018.13;;;9.28;62.28
32875;BME280;40468;42.128;24.750;2023-11-22T02:34:58;99020.66;;;9.29;62.23
32875;BME280;40468;42.128;24.750;2023-11-22T02:36:29;99020.66;;;9.29;62.29
32875;BME280;40468;42.128;24.750;2023-11-22T02:38:01;99026.69;;;9.30;62.27
32875;BME280;40468;42.128;24.750;2023-11-22T02:39:35;99024.16;;;9.28;62.26
32875;BME280;40468;42.128;24.750;2023-11-22T02:41:12;99021.56;;;9.28;62.48
32875;BME280;40468;42.128;24.750;2023-11-22T02:42:43;99032.81;;;9.29;62.44
32875;BME280;40468;42.128;24.750;2023-11-22T02:44:15;99031.97;;;9.28;62.44
32875;BME280;40468;42.128;24.750;2023-11-22T02:45:47;99020.84;;;9.26;62.25
32875;BME280;40468;42.128;24.750;2023-11-22T02:47:17;99019.13;;;9.25;62.26
32875;BME280;40468;42.128;24.750;2023-11-22T02:48:49;99014.88;;;9.24;62.43
32875;BME280;40468;42.128;24.750;2023-11-22T02:50:21;99018.28;;;9.25;62.65
32875;BME280;40468;42.128;24.750;2023-11-22T02:51:51;99019.22;;;9.24;62.57
32875;BME280;40468;42.128;24.750;2023-11-22T02:53:23;99030.63;;;9.21;62.84
32875;BME280;40468;42.128;24.750;2023-11-22T02:54:56;99020.38;;;9.18;63.22
32875;BME280;40468;42.128;24.750;2023-11-22T02:56:27;99020.44;;;9.17;63.10
32875;BME280;40468;42.128;24.750;2023-11-22T02:57:58;99026.50;;;9.17;62.86
32875;BME280;40468;42.128;24.750;2023-11-22T02:59:29;99030.84;;;9.17;62.95
32875;BME280;40468;42.128;24.750;2023-11-22T03:01:00;99030.84;;;9.17;62.87
32875;BME280;40468;42.128;24.750;2023-11-22T03:02:32;99038.63;;;9.17;62.69
32875;BME280;40468;42.128;24.750;2023-11-22T03:04:02;99042.16;;;9.16;62.91
32875;BME280;40468;42.128;24.750;2023-11-22T03:05:34;99043.81;;;9.17;62.83
32875;BME280;40468;42.128;24.750;2023-11-22T03:07:05;99044.75;;;9.16;62.86
32875;BME280;40468;42.128;24.750;2023-11-22T03:08:37;99048.28;;;9.15;63.21
32875;BME280;40468;42.128;24.750;2023-11-22T03:10:10;99047.44;;;9.14;63.21
32875;BME280;40468;42.128;24.750;2023-11-22T03:11:40;99041.38;;;9.14;63.22
32875;BME280;40468;42.128;24.750;2023-11-22T03:13:12;99040.66;;;9.11;63.00
32875;BME280;40468;42.128;24.750;2023-11-22T03:14:43;99030.31;;;9.10;63.27
32875;BME280;40468;42.128;24.750;2023-11-22T03:16:14;99031.16;;;9.10;63.08
32875;BME280;40468;42.128;24.750;2023-11-22T03:17:45;99025.97;;;9.10;63.12
32875;BME280;40468;42.128;24.750;2023-11-22T03:19:18;98969.81;;;8.75;63.22
32875;BME280;40468;42.128;24.750;2023-11-22T03:20:49;99024.28;;;9.09;63.13
32875;BME280;40468;42.128;24.750;2023-11-22T03:22:24;99008.72;;;9.09;63.21
32875;BME280;40468;42.128;24.750;2023-11-22T03:23:55;99005.19;;;9.10;63.47
32875;BME280;40468;42.128;24.750;2023-11-22T03:25:28;98999.94;;;9.12;63.01
32875;BME280;40468;42.128;24.750;2023-11-22T03:26:59;98992.13;;;9.12;62.96
32875;BME280;40468;42.128;24.750;2023-11-22T03:28:30;98981.75;;;9.12;63.32
32875;BME280;40468;42.128;24.750;2023-11-22T03:30:01;98988.59;;;9.13;63.08
32875;BME280;40468;42.128;24.750;2023-11-22T03:31:33;98986.09;;;9.11;63.11
32875;BME280;40468;42.128;24.750;2023-11-22T03:33:03;98985.28;;;9.11;63.10
32875;BME280;40468;42.128;24.750;2023-11-22T03:34:35;98980.97;;;9.10;62.88
32875;BME280;40468;42.128;24.750;2023-11-22T03:36:07;98988.75;;;9.10;62.94
32875;BME280;40468;42.128;24.750;2023-11-22T03:37:38;98985.34;;;9.09;63.28
32875;BME280;40468;42.128;24.750;2023-11-22T03:39:09;98993.13;;;9.09;63.49
32875;BME280;40468;42.128;24.750;2023-11-22T03:40:43;99001.84;;;9.08;63.84
32875;BME280;40468;42.128;24.750;2023-11-22T03:42:13;99015.81;;;9.06;63.76
32875;BME280;40468;42.128;24.750;2023-11-22T03:43:45;99025.44;;;9.04;64.02
32875;BME280;40468;42.128;24.750;2023-11-22T03:45:15;99024.69;;;9.02;64.00
32875;BME280;40468;42.128;24.750;2023-11-22T03:46:47;99031.72;;;9.00;64.11
32875;BME280;40468;42.128;24.750;2023-11-22T03:48:18;99030.88;;;8.99;64.31
32875;BME280;40468;42.128;24.750;2023-11-22T03:49:52;99035.22;;;8.99;64.37
32875;BME280;40468;42.128;24.750;2023-11-22T03:51:22;99028.28;;;8.99;64.15
32875;BME280;40468;42.128;24.750;2023-11-22T03:52:54;99028.19;;;9.01;64.15
32875;BME280;40468;42.128;24.750;2023-11-22T03:54:25;99024.69;;;9.02;63.94
32875;BME280;40468;42.128;24.750;2023-11-22T03:55:58;99018.59;;;9.03;63.88
32875;BME280;40468;42.128;24.750;2023-11-22T03:57:29;99017.66;;;9.04;64.04
32875;BME280;40468;42.128;24.750;2023-11-22T03:59:00;99015.00;;;9.05;63.71
32875;BME280;40468;42.128;24.750;2023-11-22T04:00:31;99016.66;;;9.06;63.94
32875;BME280;40468;42.128;24.750;2023-11-22T04:02:03;99026.94;;;9.08;63.87
32875;BME280;40468;42.128;24.750;2023-11-22T04:03:34;99022.63;;;9.08;63.83
32875;BME280;40468;42.128;24.750;2023-11-22T04:05:06;99018.25;;;9.09;63.83
32875;BME280;40468;42.128;24.750;2023-11-22T04:06:37;99030.41;;;9.08;64.04
32875;BME280;40468;42.128;24.750;2023-11-22T04:08:09;99026.94;;;9.08;63.89
32875;BME280;40468;42.128;24.750;2023-11-22T04:09:40;99035.63;;;9.08;63.63
32875;BME280;40468;42.128;24.750;2023-11-22T04:11:13;99038.22;;;9.08;63.92
32875;BME280;40468;42.128;24.750;2023-11-22T04:12:45;99046.06;;;9.07;63.66
32875;BME280;40468;42.128;24.750;2023-11-22T04:14:17;99042.63;;;9.06;63.87
32875;BME280;40468;42.128;24.750;2023-11-22T04:15:50;99039.19;;;9.06;64.07
32875;BME280;40468;42.128;24.750;2023-11-22T04:17:22;99039.19;;;9.06;63.86
32875;BME280;40468;42.128;24.750;2023-11-22T04:18:52;99034.75;;;9.08;63.98
32875;BME280;40468;42.128;24.750;2023-11-22T04:20:24;99032.16;;;9.08;63.84
32875;BME280;40468;42.128;24.750;2023-11-22T04:21:54;99025.22;;;9.08;63.98
32875;BME280;40468;42.128;24.750;2023-11-22T04:23:26;99031.25;;;9.09;64.00
32875;BME280;40468;42.128;24.750;2023-11-22T04:24:57;99029.50;;;9.09;64.07
32875;BME280;40468;42.128;24.750;2023-11-22T04:26:30;99026.81;;;9.11;63.96
32875;BME280;40468;42.128;24.750;2023-11-22T04:28:00;99029.41;;;9.11;63.77
32875;BME280;40468;42.128;24.750;2023-11-22T04:29:32;99031.09;;;9.12;63.90
32875;BME280;40468;42.128;24.750;2023-11-22T04:31:03;99041.38;;;9.14;63.93
32875;BME280;40468;42.128;24.750;2023-11-22T04:32:35;99048.44;;;9.11;63.97
32875;BME280;40468;42.128;24.750;2023-11-22T04:34:06;99059.00;;;9.08;64.13
32875;BME280;40468;42.128;24.750;2023-11-22T04:35:38;99065.16;;;9.06;64.15
32875;BME280;40468;42.128;24.750;2023-11-22T04:37:09;99074.78;;;9.04;64.50
32875;BME280;40468;42.128;24.750;2023-11-22T04:38:41;99073.44;;;8.97;64.45
32875;BME280;40468;42.128;24.750;2023-11-22T04:40:13;99057.91;;;8.95;64.66
32875;BME280;40468;42.128;24.750;2023-11-22T04:41:45;99048.50;;;8.93;64.83
32875;BME280;40468;42.128;24.750;2023-11-22T04:43:17;99045.91;;;8.93;64.75
32875;BME280;40468;42.128;24.750;2023-11-22T04:44:48;99056.25;;;8.94;64.81
32875;BME280;40468;42.128;24.750;2023-11-22T04:46:19;99066.69;;;8.93;64.78
32875;BME280;40468;42.128;24.750;2023-11-22T04:47:50;99081.38;;;8.94;64.83
32875;BME280;40468;42.128;24.750;2023-11-22T04:49:22;99082.28;;;8.93;64.99
32875;BME280;40468;42.128;24.750;2023-11-22T04:50:52;99092.81;;;8.89;65.21
32875;BME280;40468;42.128;24.750;2023-11-22T04:52:24;99092.06;;;8.87;65.38
32875;BME280;40468;42.128;24.750;2023-11-22T04:53:54;99102.59;;;8.84;65.38
32875;BME280;40468;42.128;24.750;2023-11-22T04:55:26;99095.81;;;8.82;65.88
32875;BME280;40468;42.128;24.750;2023-11-22T04:56:58;99094.09;;;8.81;65.84
32875;BME280;40468;42.128;24.750;2023-11-22T04:58:30;99090.66;;;8.80;65.75
32875;BME280;40468;42.128;24.750;2023-11-22T05:00:00;99093.22;;;8.82;65.76
32875;BME280;40468;42.128;24.750;2023-11-22T05:01:34;99093.94;;;8.84;65.66
32875;BME280;40468;42.128;24.750;2023-11-22T05:03:09;99097.25;;;8.87;65.33
32875;BME280;40468;42.128;24.750;2023-11-22T05:04:39;99103.19;;;8.89;65.57
32875;BME280;40468;42.128;24.750;2023-11-22T05:06:11;99106.63;;;8.90;65.42
32875;BME280;40468;42.128;24.750;2023-11-22T05:07:42;99118.63;;;8.93;65.35
32875;BME280;40468;42.128;24.750;2023-11-22T05:09:17;99116.81;;;8.95;65.17
32875;BME280;40468;42.128;24.750;2023-11-22T05:10:48;99122.78;;;8.97;65.07
32875;BME280;40468;42.128;24.750;2023-11-22T05:12:21;99127.88;;;8.98;65.16
32875;BME280;40468;42.128;24.750;2023-11-22T05:13:52;99128.56;;;9.02;65.15
32875;BME280;40468;42.128;24.750;2023-11-22T05:15:24;99131.88;;;9.05;65.10
32875;BME280;40468;42.128;24.750;2023-11-22T05:16:54;99123.97;;;9.07;64.76
32875;BME280;40468;42.128;24.750;2023-11-22T05:18:26;99129.03;;;9.10;64.79
32875;BME280;40468;42.128;24.750;2023-11-22T05:19:57;99127.19;;;9.12;64.82
32875;BME280;40468;42.128;24.750;2023-11-22T05:21:29;99132.31;;;9.14;64.67
32875;BME280;40468;42.128;24.750;2023-11-22T05:22:59;99130.41;;;9.17;64.59
32875;BME280;40468;42.128;24.750;2023-11-22T05:24:31;99121.53;;;9.21;64.53
32875;BME280;40468;42.128;24.750;2023-11-22T05:26:02;99116.19;;;9.24;64.54
32875;BME280;40468;42.128;24.750;2023-11-22T05:27:36;99114.34;;;9.26;64.65
32875;BME280;40468;42.128;24.750;2023-11-22T05:29:07;99115.09;;;9.28;64.62
32875;BME280;40468;42.128;24.750;2023-11-22T05:30:38;99122.91;;;9.28;64.54
32875;BME280;40468;42.128;24.750;2023-11-22T05:32:10;99131.56;;;9.29;64.28
32875;BME280;40468;42.128;24.750;2023-11-22T05:33:41;99127.25;;;9.28;64.27
32875;BME280;40468;42.128;24.750;2023-11-22T05:35:12;99140.34;;;9.26;64.32
32875;BME280;40468;42.128;24.750;2023-11-22T05:36:43;99148.19;;;9.25;64.58
32875;BME280;40468;42.128;24.750;2023-11-22T05:38:15;99148.19;;;9.25;64.46
32875;BME280;40468;42.128;24.750;2023-11-22T05:39:47;99139.56;;;9.24;64.50
32875;BME280;40468;42.128;24.750;2023-11-22T05:41:17;99140.41;;;9.25;64.36
32875;BME280;40468;42.128;24.750;2023-11-22T05:42:50;99150.72;;;9.26;64.59
32875;BME280;40468;42.128;24.750;2023-11-22T05:44:21;99153.19;;;9.29;64.48
32875;BME280;40468;42.128;24.750;2023-11-22T05:45:52;99157.44;;;9.30;64.60
32875;BME280;40468;42.128;24.750;2023-11-22T05:47:24;99160.03;;;9.30;64.46
32875;BME280;40468;42.128;24.750;2023-11-22T05:48:55;99162.66;;;9.30;64.20
32875;BME280;40468;42.128;24.750;2023-11-22T05:50:27;99167.84;;;9.30;64.11
32875;BME280;40468;42.128;24.750;2023-11-22T05:51:57;99173.03;;;9.30;64.10
32875;BME280;40468;42.128;24.750;2023-11-22T05:53:29;99172.25;;;9.28;64.38
32875;BME280;40468;42.128;24.750;2023-11-22T05:55:00;99173.19;;;9.27;64.33
32875;BME280;40468;42.128;24.750;2023-11-22T05:56:34;99175.00;;;9.25;64.20
32875;BME280;40468;42.128;24.750;2023-11-22T05:58:06;99180.22;;;9.25;64.51
32875;BME280;40468;42.128;24.750;2023-11-22T05:59:43;99175.00;;;9.25;64.33
32875;BME280;40468;42.128;24.750;2023-11-22T06:01:14;99172.41;;;9.25;64.10
32875;BME280;40468;42.128;24.750;2023-11-22T06:02:46;99168.91;;;9.26;64.36
32875;BME280;40468;42.128;24.750;2023-11-22T06:04:17;99172.34;;;9.27;64.39
32875;BME280;40468;42.128;24.750;2023-11-22T06:05:48;99176.72;;;9.26;64.34
32875;BME280;40468;42.128;24.750;2023-11-22T06:07:19;99153.31;;;9.09;64.13
32875;BME280;40468;42.128;24.750;2023-11-22T06:08:51;99180.06;;;9.28;64.01
32875;BME280;40468;42.128;24.750;2023-11-22T06:10:23;99169.66;;;9.28;64.32
32875;BME280;40468;42.128;24.750;2023-11-22T06:11:55;99173.13;;;9.29;64.10
32875;BME280;40468;42.128;24.750;2023-11-22T06:13:28;99169.59;;;9.30;63.91
32875;BME280;40468;42.128;24.750;2023-11-22T06:14:58;99168.75;;;9.29;64.08
32875;BME280;40468;42.128;24.750;2023-11-22T06:16:30;99162.66;;;9.30;64.12
32875;BME280;40468;42.128;24.750;2023-11-22T06:18:01;99173.88;;;9.31;64.66
32875;BME280;40468;42.128;24.750;2023-11-22T06:19:41;99179.91;;;9.31;64.52
32875;BME280;40468;42.128;24.750;2023-11-22T06:21:11;99180.84;;;9.30;64.59
32875;BME280;40468;42.128;24.750;2023-11-22T06:22:45;99175.63;;;9.30;64.53
32875;BME280;40468;42.128;24.750;2023-11-22T06:24:17;99172.03;;;9.33;64.67
32875;BME280;40468;42.128;24.750;2023-11-22T06:25:48;99168.53;;;9.34;64.43
32875;BME280;40468;42.128;24.750;2023-11-22T06:27:19;99171.88;;;9.36;64.55
32875;BME280;40468;42.128;24.750;2023-11-22T06:28:52;99179.63;;;9.38;64.76
32875;BME280;40468;42.128;24.750;2023-11-22T06:30:26;99178.59;;;9.40;64.70
32875;BME280;40468;42.128;24.750;2023-11-22T06:31:56;99187.13;;;9.44;64.76
32875;BME280;40468;42.128;24.750;2023-11-22T06:33:28;99188.84;;;9.43;64.84
32875;BME280;40468;42.128;24.750;2023-11-22T06:34:59;99193.97;;;9.45;64.74
32875;BME280;40468;42.128;24.750;2023-11-22T06:36:30;99199.09;;;9.46;64.85
32875;BME280;40468;42.128;24.750;2023-11-22T06:38:01;99208.66;;;9.46;65.04
32875;BME280;40468;42.128;24.750;2023-11-22T06:39:33;99206.19;;;9.43;65.23
32875;BME280;40468;42.128;24.750;2023-11-22T06:41:04;99202.75;;;9.42;65.40
32875;BME280;40468;42.128;24.750;2023-11-22T06:42:36;99210.50;;;9.44;65.27
32875;BME280;40468;42.128;24.750;2023-11-22T06:44:08;99220.75;;;9.47;65.57
32875;BME280;40468;42.128;24.750;2023-11-22T06:45:41;99219.72;;;9.49;65.18
32875;BME280;40468;42.128;24.750;2023-11-22T06:47:12;99223.94;;;9.52;65.35
32875;BME280;40468;42.128;24.750;2023-11-22T06:48:43;99219.66;;;9.51;65.60
32875;BME280;40468;42.128;24.750;2023-11-22T06:50:14;99220.50;;;9.51;65.48
32875;BME280;40468;42.128;24.750;2023-11-22T06:51:47;99224.78;;;9.52;65.81
32875;BME280;40468;42.128;24.750;2023-11-22T06:53:17;99216.84;;;9.55;65.57
32875;BME280;40468;42.128;24.750;2023-11-22T06:54:50;99229.69;;;9.59;65.53
32875;BME280;40468;42.128;24.750;2023-11-22T06:56:21;99237.25;;;9.63;65.62
32875;BME280;40468;42.128;24.750;2023-11-22T06:57:53;99235.25;;;9.68;65.41
32875;BME280;40468;42.128;24.750;2023-11-22T06:59:25;99240.22;;;9.73;65.50
32875;BME280;40468;42.128;24.750;2023-11-22T07:00:57;99242.66;;;9.76;65.10
32875;BME280;40468;42.128;24.750;2023-11-22T07:02:27;99243.34;;;9.79;65.14
32875;BME280;40468;42.128;24.750;2023-11-22T07:03:59;99242.38;;;9.82;65.00
32875;BME280;40468;42.128;24.750;2023-11-22T07:05:31;99238.84;;;9.83;65.20
32875;BME280;40468;42.128;24.750;2023-11-22T07:07:03;99246.38;;;9.88;64.82
32875;BME280;40468;42.128;24.750;2023-11-22T07:08:34;99234.16;;;9.90;65.16
32875;BME280;40468;42.128;24.750;2023-11-22T07:10:06;99218.38;;;9.93;65.02
32875;BME280;40468;42.128;24.750;2023-11-22T07:11:37;99211.41;;;9.93;65.21
32875;BME280;40468;42.128;24.750;2023-11-22T07:13:09;99208.91;;;9.92;65.41
32875;BME280;40468;42.128;24.750;2023-11-22T07:14:41;99215.03;;;9.91;65.50
32875;BME280;40468;42.128;24.750;2023-11-22T07:16:13;99215.03;;;9.91;65.57
32875;BME280;40468;42.128;24.750;2023-11-22T07:17:45;99219.31;;;9.92;65.58
32875;BME280;40468;42.128;24.750;2023-11-22T07:19:17;99228.72;;;9.94;65.62
32875;BME280;40468;42.128;24.750;2023-11-22T07:20:49;99212.41;;;9.91;65.76
32875;BME280;40468;42.128;24.750;2023-11-22T07:22:23;99231.84;;;10.01;65.60
32875;BME280;40468;42.128;24.750;2023-11-22T07:23:54;99231.69;;;10.04;65.56
32875;BME280;40468;42.128;24.750;2023-11-22T07:25:26;99238.50;;;10.07;65.36
32875;BME280;40468;42.128;24.750;2023-11-22T07:26:57;99239.41;;;10.06;65.45
32875;BME280;40468;42.128;24.750;2023-11-22T07:28:31;99239.34;;;10.07;65.60
32875;BME280;40468;42.128;24.750;2023-11-22T07:30:03;99240.16;;;10.08;65.49
32875;BME280;40468;42.128;24.750;2023-11-22T07:31:35;99241.00;;;10.08;65.57
32875;BME280;40468;42.128;24.750;2023-11-22T07:33:08;99235.72;;;10.10;65.48
32875;BME280;40468;42.128;24.750;2023-11-22T07:34:42;99237.41;;;10.11;65.37
32875;BME280;40468;42.128;24.750;2023-11-22T07:36:13;99245.16;;;10.12;65.67
32875;BME280;40468;42.128;24.750;2023-11-22T07:37:46;99235.56;;;10.13;65.79
32875;BME280;40468;42.128;24.750;2023-11-22T07:39:19;99228.53;;;10.15;65.76
32875;BME280;40468;42.128;24.750;2023-11-22T07:40:57;99230.09;;;10.17;65.63
32875;BME280;40468;42.128;24.750;2023-11-22T07:42:28;99239.69;;;10.17;66.11
32875;BME280;40468;42.128;24.750;2023-11-22T07:44:00;99243.28;;;10.14;66.44
32875;BME280;40468;42.128;24.750;2023-11-22T07:45:32;99235.72;;;10.10;66.71
32875;BME280;40468;42.128;24.750;2023-11-22T07:47:04;99227.94;;;10.10;66.81
32875;BME280;40468;42.128;24.750;2023-11-22T07:48:38;99229.84;;;10.06;67.11
32875;BME280;40468;42.128;24.750;2023-11-22T07:50:14;99242.16;;;10.02;66.95
32875;BME280;40468;42.128;24.750;2023-11-22T07:51:57;99249.22;;;10.00;66.96
32875;BME280;40468;42.128;24.750;2023-11-22T07:53:45;99251.06;;;9.98;67.49
32875;BME280;40468;42.128;24.750;2023-11-22T07:55:16;99247.53;;;9.99;67.46
32875;BME280;40468;42.128;24.750;2023-11-22T07:56:48;99248.38;;;10.00;67.33
32875;BME280;40468;42.128;24.750;2023-11-22T07:58:19;99261.28;;;10.01;67.46
32875;BME280;40468;42.128;24.750;2023-11-22T07:59:51;99255.41;;;9.98;67.84
32875;BME280;40468;42.128;24.750;2023-11-22T08:01:26;99259.69;;;9.99;67.95
32875;BME280;40468;42.128;24.750;2023-11-22T08:03:00;99253.59;;;10.00;68.14
32875;BME280;40468;42.128;24.750;2023-11-22T08:04:32;99253.81;;;9.95;68.38
32875;BME280;40468;42.128;24.750;2023-11-22T08:06:04;99259.09;;;9.94;68.35